createdAt,value
2018-07-09T00:02:10.652Z,25.68
2018-07-09T00:07:14.349Z,25.67
2018-07-09T00:12:18.041Z,25.65
2018-07-09T00:17:21.525Z,25.66
2018-07-09T00:22:24.978Z,25.60
2018-07-09T00:27:28.453Z,25.62
2018-07-09T00:32:31.939Z,25.61
2018-07-09T00:37:35.655Z,25.60
2018-07-09T00:42:39.127Z,25.57
2018-07-09T00:47:42.681Z,25.54
2018-07-09T00:52:46.740Z,25.53
2018-07-09T00:57:50.903Z,25.51
2018-07-09T01:02:54.402Z,25.50
2018-07-09T01:07:57.898Z,25.49
2018-07-09T01:13:01.394Z,25.47
2018-07-09T01:18:04.874Z,25.43
2018-07-09T01:23:08.594Z,25.42
2018-07-09T01:28:12.173Z,25.39
2018-07-09T01:33:16.055Z,25.39
2018-07-09T01:38:19.673Z,25.36
2018-07-09T01:43:23.189Z,25.36
2018-07-09T01:48:26.837Z,25.36
2018-07-09T01:53:30.509Z,25.34
2018-07-09T01:58:34.136Z,25.35
2018-07-09T02:03:37.625Z,25.30
2018-07-09T02:08:41.159Z,25.30
2018-07-09T02:13:45.077Z,25.28
2018-07-09T02:18:48.599Z,25.23
2018-07-09T02:23:52.062Z,25.24
2018-07-09T02:28:55.646Z,25.23
2018-07-09T02:33:59.198Z,25.21
2018-07-09T02:39:02.986Z,25.20
2018-07-09T02:44:06.705Z,25.20
2018-07-09T02:49:10.282Z,25.15
2018-07-09T02:54:14.478Z,25.09
2018-07-09T02:59:17.919Z,25.09
2018-07-09T03:04:21.585Z,25.04
2018-07-09T03:09:25.292Z,25.03
2018-07-09T03:14:28.820Z,24.98
2018-07-09T03:19:32.310Z,24.92
2018-07-09T03:24:36.010Z,24.93
2018-07-09T03:29:39.531Z,24.85
2018-07-09T03:34:43.180Z,24.83
2018-07-09T03:39:46.672Z,24.87
2018-07-09T03:44:50.405Z,24.84
2018-07-09T03:49:54.221Z,24.83
2018-07-09T03:54:57.930Z,24.68
2018-07-09T04:00:01.587Z,24.71
2018-07-09T04:05:05.304Z,24.72
2018-07-09T04:10:08.918Z,24.70
2018-07-09T04:15:12.649Z,24.38
2018-07-09T04:20:16.157Z,24.46
2018-07-09T04:25:19.673Z,24.41
2018-07-09T04:30:23.293Z,24.35
2018-07-09T04:35:26.978Z,24.27
2018-07-09T04:40:30.526Z,24.11
2018-07-09T04:45:34.024Z,23.94
2018-07-09T04:50:37.552Z,24.06
2018-07-09T04:55:41.276Z,23.98
2018-07-09T05:00:45.202Z,23.89
2018-07-09T05:05:48.651Z,24.02
2018-07-09T05:10:52.330Z,23.86
2018-07-09T05:15:56.047Z,23.94
2018-07-09T05:20:59.669Z,23.92
2018-07-09T05:26:03.188Z,23.81
2018-07-09T05:31:06.694Z,23.61
2018-07-09T05:36:10.217Z,23.52
2018-07-09T05:41:13.626Z,23.53
2018-07-09T05:46:17.046Z,23.64
2018-07-09T05:51:20.721Z,23.56
2018-07-09T05:56:24.140Z,23.46
2018-07-09T06:01:27.563Z,23.57
2018-07-09T06:06:31.072Z,23.61
2018-07-09T06:11:34.746Z,23.43
2018-07-09T06:16:38.339Z,23.53
2018-07-09T06:21:41.796Z,23.57
2018-07-09T06:26:45.252Z,23.73
2018-07-09T06:31:48.670Z,23.70
2018-07-09T06:36:52.244Z,23.57
2018-07-09T06:41:55.702Z,23.42
2018-07-09T06:46:59.458Z,23.46
2018-07-09T06:52:03.331Z,23.45
2018-07-09T06:57:06.794Z,23.55
2018-07-09T07:02:11.462Z,23.36
2018-07-09T07:07:15.326Z,23.51
2018-07-09T07:12:18.834Z,23.62
2018-07-09T07:17:22.246Z,23.67
2018-07-09T07:22:25.865Z,23.52
2018-07-09T07:27:29.518Z,23.70
2018-07-09T07:32:32.966Z,23.66
2018-07-09T07:37:36.425Z,23.55
2018-07-09T07:42:39.932Z,23.43
2018-07-09T07:47:43.401Z,23.33
2018-07-09T07:52:46.863Z,23.37
2018-07-09T07:57:50.487Z,23.48
2018-07-09T08:02:54.067Z,23.44
2018-07-09T08:07:57.557Z,23.49
2018-07-09T08:13:26.863Z,23.46
2018-07-09T08:18:04.582Z,23.54
2018-07-09T08:23:08.036Z,23.29
2018-07-09T08:28:11.497Z,23.19
2018-07-09T08:33:15.210Z,23.36
2018-07-09T08:38:18.614Z,23.41
2018-07-09T08:43:22.123Z,23.42
2018-07-09T08:48:25.632Z,23.46
2018-07-09T08:53:29.075Z,23.54
2018-07-09T08:58:32.537Z,23.37
2018-07-09T09:03:36.022Z,23.28
2018-07-09T09:08:39.458Z,23.45
2018-07-09T09:13:43.088Z,23.46
2018-07-09T09:18:46.537Z,23.41
2018-07-09T09:23:50.233Z,23.39
2018-07-09T09:28:53.963Z,23.33
2018-07-09T09:33:57.453Z,23.43
2018-07-09T09:39:00.923Z,23.39
2018-07-09T09:44:04.406Z,23.46
2018-07-09T09:49:07.855Z,23.60
2018-07-09T09:54:11.530Z,23.54
2018-07-09T09:59:15.026Z,23.42
2018-07-09T10:04:18.549Z,23.49
2018-07-09T10:09:22.059Z,23.56
2018-07-09T10:14:25.624Z,23.67
2018-07-09T10:19:29.120Z,23.68
2018-07-09T10:24:32.594Z,23.65
2018-07-09T10:29:36.105Z,23.67
2018-07-09T10:34:39.661Z,23.82
2018-07-09T10:39:43.031Z,23.97
2018-07-09T10:44:46.518Z,24.03
2018-07-09T10:49:50.104Z,24.07
2018-07-09T10:54:53.935Z,24.12
2018-07-09T10:59:57.645Z,24.17
2018-07-09T11:05:01.107Z,24.20
2018-07-09T11:10:04.580Z,24.26
2018-07-09T11:15:08.397Z,24.27
2018-07-09T11:20:11.912Z,24.27
2018-07-09T11:25:15.602Z,24.28
2018-07-09T11:30:19.046Z,24.30
2018-07-09T11:35:22.502Z,24.33
2018-07-09T11:40:25.936Z,24.36
2018-07-09T11:45:29.588Z,24.39
2018-07-09T11:50:33.110Z,24.36
2018-07-09T11:55:36.546Z,24.37
2018-07-09T12:00:39.974Z,24.41
2018-07-09T12:05:43.674Z,24.44
2018-07-09T12:10:47.454Z,24.45
2018-07-09T12:15:51.160Z,24.46
2018-07-09T12:20:54.613Z,24.45
2018-07-09T12:25:58.306Z,24.47
2018-07-09T12:31:01.914Z,24.47
2018-07-09T12:36:07.054Z,24.51
2018-07-09T12:41:10.497Z,24.53
2018-07-09T12:46:14.222Z,24.55
2018-07-09T12:51:17.736Z,24.55
2018-07-09T12:56:21.204Z,24.58
2018-07-09T13:01:24.739Z,24.60
2018-07-09T13:06:28.394Z,24.63
2018-07-09T13:11:32.177Z,24.64
2018-07-09T13:16:35.593Z,24.66
2018-07-09T13:21:39.820Z,24.69
2018-07-09T13:26:43.478Z,24.73
2018-07-09T13:31:47.422Z,24.74
2018-07-09T13:36:50.917Z,24.80
2018-07-09T13:41:54.428Z,24.80
2018-07-09T13:46:58.137Z,24.83
2018-07-09T13:52:02.125Z,24.89
2018-07-09T13:57:05.593Z,24.94
2018-07-09T14:02:09.702Z,25.06
2018-07-09T14:07:13.288Z,25.19
2018-07-09T14:12:17.081Z,25.28
2018-07-09T14:17:20.864Z,25.36
2018-07-09T14:22:24.377Z,25.44
2018-07-09T14:27:28.001Z,25.48
2018-07-09T14:32:31.705Z,25.55
2018-07-09T14:37:35.217Z,25.62
2018-07-09T14:42:39.172Z,25.58
2018-07-09T14:47:43.373Z,25.61
2018-07-09T14:52:47.086Z,25.65
2018-07-09T14:57:50.519Z,25.64
2018-07-09T15:02:54.150Z,25.60
2018-07-09T15:07:58.296Z,25.60
2018-07-09T15:13:01.846Z,25.56
2018-07-09T15:18:05.983Z,25.56
2018-07-09T15:23:09.382Z,25.56
2018-07-09T15:28:12.937Z,25.55
2018-07-09T15:33:16.721Z,25.54
2018-07-09T15:38:20.689Z,25.50
2018-07-09T15:44:03.268Z,25.52
2018-07-09T15:49:06.961Z,25.52
2018-07-09T15:54:10.654Z,25.56
2018-07-09T15:59:14.117Z,25.64
2018-07-09T16:04:17.841Z,25.69
2018-07-09T16:09:21.625Z,25.74
2018-07-09T16:14:25.124Z,25.76
2018-07-09T16:19:28.759Z,25.76
2018-07-09T16:24:32.380Z,25.76
2018-07-09T16:29:36.005Z,25.73
2018-07-09T16:34:40.023Z,25.74
2018-07-09T16:39:43.540Z,25.75
2018-07-09T16:44:47.503Z,25.73
2018-07-09T16:49:51.209Z,25.71
2018-07-09T16:54:54.851Z,25.71
2018-07-09T16:59:58.627Z,25.71
2018-07-09T17:05:03.022Z,25.70
2018-07-09T17:10:08.290Z,25.69
2018-07-09T17:15:11.854Z,25.70
2018-07-09T17:20:15.561Z,25.70
2018-07-09T17:25:19.155Z,25.71
2018-07-09T17:30:23.426Z,25.70
2018-07-09T17:35:26.970Z,25.70
2018-07-09T17:40:30.668Z,25.71
2018-07-09T17:45:34.195Z,25.79
2018-07-09T17:50:37.998Z,25.90
2018-07-09T17:55:41.757Z,25.98
2018-07-09T18:00:45.312Z,26.07
2018-07-09T18:05:48.929Z,26.09
2018-07-09T18:10:52.411Z,26.10
2018-07-09T18:15:56.027Z,26.11
2018-07-09T18:20:59.497Z,26.12
2018-07-09T18:26:03.217Z,26.14
2018-07-09T18:31:06.925Z,26.12
2018-07-09T18:36:10.529Z,26.08
2018-07-09T18:41:14.265Z,26.05
2018-07-09T18:46:18.444Z,26.01
2018-07-09T18:51:22.112Z,26.01
2018-07-09T18:56:25.826Z,25.97
2018-07-09T19:01:29.414Z,25.97
2018-07-09T19:06:45.266Z,25.96
2018-07-09T19:11:48.842Z,25.94
2018-07-09T19:18:12.109Z,25.91
2018-07-09T19:23:14.691Z,25.91
2018-07-09T19:28:17.165Z,25.89
2018-07-09T19:33:19.527Z,25.90
2018-07-09T19:38:21.921Z,25.90
2018-07-09T19:43:25.229Z,25.88
2018-07-09T19:48:27.585Z,25.87
2018-07-09T19:53:29.913Z,25.83
2018-07-09T19:58:32.270Z,25.82
2018-07-09T20:03:34.680Z,25.82
2018-07-09T20:08:42.321Z,25.81
2018-07-09T20:13:51.761Z,25.81
2018-07-09T20:18:54.129Z,25.80
2018-07-09T20:23:56.474Z,25.81
2018-07-09T20:28:59.006Z,25.79
2018-07-09T20:34:01.378Z,25.79
2018-07-09T20:39:06.026Z,25.78
2018-07-09T20:44:08.607Z,25.77
2018-07-09T20:49:10.986Z,25.77
2018-07-09T20:54:13.538Z,25.76
2018-07-09T20:59:15.925Z,25.74
2018-07-09T21:04:23.605Z,25.74
2018-07-09T21:09:26.597Z,25.70
2018-07-09T21:14:28.986Z,25.73
2018-07-09T21:19:31.351Z,25.73
2018-07-09T21:24:33.704Z,25.73
2018-07-09T21:29:36.105Z,25.71
2018-07-09T21:34:38.573Z,25.70
2018-07-09T21:39:41.464Z,25.70
2018-07-09T21:44:43.973Z,25.70
2018-07-09T21:49:47.361Z,25.68
2018-07-09T21:54:49.765Z,25.66
2018-07-09T21:59:52.327Z,25.67
2018-07-09T22:04:54.639Z,25.68
2018-07-09T22:09:57.056Z,25.65
2018-07-09T22:14:59.629Z,25.65
2018-07-09T22:20:02.069Z,25.63
2018-07-09T22:25:04.874Z,25.62
2018-07-09T22:30:07.260Z,25.64
2018-07-09T22:35:11.146Z,25.61
2018-07-09T22:40:14.954Z,25.62
2018-07-09T22:45:18.394Z,25.61
2018-07-09T22:50:22.265Z,25.59
2018-07-09T22:55:37.057Z,25.57
2018-07-09T23:00:40.778Z,25.57
2018-07-09T23:05:44.865Z,25.54
2018-07-09T23:14:02.534Z,25.54
2018-07-09T23:19:19.206Z,25.54
2018-07-09T23:24:21.569Z,25.54
2018-07-09T23:29:23.907Z,25.54
2018-07-09T23:34:26.205Z,25.53
2018-07-09T23:39:28.832Z,25.54
2018-07-09T23:44:31.177Z,25.50
2018-07-09T23:49:33.508Z,25.50
2018-07-09T23:54:36.031Z,25.49
2018-07-09T23:59:51.837Z,25.53
